createdAt,value
2016-10-05T00:00:00.509Z,0
2016-10-05T00:01:01.475Z,0
2016-10-05T00:02:01.345Z,0
2016-10-05T00:03:01.449Z,0
2016-10-05T00:04:01.496Z,0
2016-10-05T00:05:00.280Z,0
2016-10-05T00:06:01.028Z,0
2016-10-05T00:07:00.176Z,0
2016-10-05T00:08:00.864Z,0
2016-10-05T00:09:00.132Z,0
2016-10-05T00:10:01.240Z,0
2016-10-05T00:11:00.191Z,0
2016-10-05T00:12:00.942Z,0
2016-10-05T00:13:02.168Z,0
2016-10-05T00:14:01.176Z,0
2016-10-05T00:15:00.585Z,0
2016-10-05T00:16:01.815Z,0
2016-10-05T00:17:01.156Z,0
2016-10-05T00:18:00.714Z,0
2016-10-05T00:19:00.227Z,0
2016-10-05T00:20:01.038Z,0
2016-10-05T00:21:01.060Z,0
2016-10-05T00:22:01.322Z,0
2016-10-05T00:23:01.553Z,0
2016-10-05T00:24:01.624Z,0
2016-10-05T00:25:00.629Z,0
2016-10-05T00:26:00.845Z,0
2016-10-05T00:27:00.157Z,0
2016-10-05T00:28:01.886Z,0
2016-10-05T00:29:00.833Z,0
2016-10-05T00:30:01.024Z,0
2016-10-05T00:31:00.639Z,0
2016-10-05T00:32:00.959Z,0
2016-10-05T00:33:01.326Z,0
2016-10-05T00:34:00.612Z,0
2016-10-05T00:35:02.211Z,0
2016-10-05T00:36:01.258Z,0
2016-10-05T00:37:01.119Z,0
2016-10-05T00:38:00.608Z,0
2016-10-05T00:39:01.233Z,0
2016-10-05T00:40:01.175Z,0
2016-10-05T00:41:00.812Z,0
2016-10-05T00:42:02.216Z,0
2016-10-05T00:43:00.901Z,0
2016-10-05T00:44:01.660Z,0
2016-10-05T00:45:00.552Z,0
2016-10-05T00:46:01.148Z,0
2016-10-05T00:47:00.720Z,0
2016-10-05T00:48:01.286Z,0
2016-10-05T00:49:01.109Z,0
2016-10-05T00:50:00.709Z,0
2016-10-05T00:51:02.662Z,0
2016-10-05T00:52:01.301Z,0
2016-10-05T00:53:02.353Z,0
2016-10-05T00:54:00.784Z,0
2016-10-05T00:55:02.251Z,0
2016-10-05T00:56:01.247Z,0
2016-10-05T00:57:02.514Z,0
2016-10-05T00:58:02.641Z,0
2016-10-05T00:59:01.404Z,0
2016-10-05T01:00:01.234Z,0
2016-10-05T01:01:01.392Z,0
2016-10-05T01:02:01.328Z,0
2016-10-05T01:03:01.187Z,0
2016-10-05T01:04:01.599Z,0
2016-10-05T01:05:01.204Z,0
2016-10-05T01:06:01.572Z,0
2016-10-05T01:07:02.044Z,0
2016-10-05T01:08:01.179Z,0
2016-10-05T01:09:02.390Z,0
2016-10-05T01:10:02.596Z,0
2016-10-05T01:11:02.417Z,0
2016-10-05T01:12:03.246Z,0
2016-10-05T01:13:02.755Z,0
2016-10-05T01:14:02.075Z,0
2016-10-05T01:15:02.559Z,0
2016-10-05T01:16:01.296Z,0
2016-10-05T01:17:01.443Z,0
2016-10-05T01:18:01.270Z,0
2016-10-05T01:19:02.051Z,0
2016-10-05T01:20:01.533Z,0
2016-10-05T01:21:02.631Z,0
2016-10-05T01:22:01.692Z,0
2016-10-05T01:23:01.778Z,0
2016-10-05T01:24:02.889Z,0
2016-10-05T01:25:01.670Z,0
2016-10-05T01:26:02.735Z,0
2016-10-05T01:27:02.219Z,0
2016-10-05T01:28:02.685Z,0
2016-10-05T01:29:02.386Z,0
2016-10-05T01:30:02.729Z,0
2016-10-05T01:31:02.528Z,0
2016-10-05T01:32:02.049Z,0
2016-10-05T01:33:03.140Z,0
2016-10-05T01:34:02.602Z,0
2016-10-05T01:35:01.345Z,0
2016-10-05T01:36:02.971Z,0
2016-10-05T01:37:02.931Z,0
2016-10-05T01:38:02.390Z,0
2016-10-05T01:39:02.964Z,0
2016-10-05T01:40:02.854Z,0
2016-10-05T01:41:01.373Z,0
2016-10-05T01:42:01.856Z,0
2016-10-05T01:43:02.314Z,0
2016-10-05T01:44:01.851Z,0
2016-10-05T01:45:02.856Z,0
2016-10-05T01:46:02.190Z,0
2016-10-05T01:47:03.066Z,0
2016-10-05T01:48:01.748Z,0
2016-10-05T01:49:02.256Z,0
2016-10-05T01:50:01.659Z,0
2016-10-05T01:51:02.476Z,0
2016-10-05T01:52:02.561Z,0
2016-10-05T01:53:03.043Z,0
2016-10-05T01:54:02.147Z,0
2016-10-05T01:55:01.812Z,0
2016-10-05T01:56:02.244Z,0
2016-10-05T01:57:01.880Z,0
2016-10-05T01:58:02.875Z,0
2016-10-05T01:59:02.450Z,0
2016-10-05T02:00:03.989Z,0
2016-10-05T02:01:02.157Z,0
2016-10-05T02:02:02.455Z,0
2016-10-05T02:03:02.895Z,0
2016-10-05T02:04:03.495Z,0
2016-10-05T02:05:01.952Z,0
2016-10-05T02:06:01.951Z,0
2016-10-05T02:07:02.907Z,0
2016-10-05T02:08:02.314Z,0
2016-10-05T02:09:02.671Z,0
2016-10-05T02:10:04.085Z,0
2016-10-05T02:11:03.383Z,0
2016-10-05T02:12:02.817Z,0
2016-10-05T02:13:01.555Z,0
2016-10-05T02:14:03.585Z,0
2016-10-05T02:15:03.102Z,0
2016-10-05T02:16:02.635Z,0
2016-10-05T02:17:03.831Z,0
2016-10-05T02:18:02.463Z,0
2016-10-05T02:19:01.718Z,0
2016-10-05T02:20:03.663Z,0
2016-10-05T02:21:03.433Z,0
2016-10-05T02:22:03.250Z,0
2016-10-05T02:23:03.077Z,0
2016-10-05T02:24:02.784Z,0
2016-10-05T02:25:03.325Z,0
2016-10-05T02:26:03.209Z,0
2016-10-05T02:27:02.590Z,0
2016-10-05T02:28:03.484Z,0
2016-10-05T02:29:04.018Z,0
2016-10-05T02:30:02.698Z,0
2016-10-05T02:31:03.418Z,0
2016-10-05T02:32:02.672Z,0
2016-10-05T02:33:03.481Z,0
2016-10-05T02:34:03.191Z,0
2016-10-05T02:35:03.310Z,0
2016-10-05T02:36:02.667Z,0
2016-10-05T02:37:02.585Z,0
2016-10-05T02:38:03.529Z,0
2016-10-05T02:39:03.301Z,0
2016-10-05T02:40:04.329Z,0
2016-10-05T02:41:02.720Z,0
2016-10-05T02:42:03.772Z,0
2016-10-05T02:43:03.403Z,0
2016-10-05T02:44:10.583Z,0
2016-10-05T02:45:03.653Z,0
2016-10-05T02:46:02.956Z,0
2016-10-05T02:47:02.514Z,0
2016-10-05T02:48:03.923Z,0
2016-10-05T02:49:04.212Z,0
2016-10-05T02:50:04.340Z,0
2016-10-05T02:51:03.121Z,0
2016-10-05T02:52:04.423Z,0
2016-10-05T02:53:03.525Z,0
2016-10-05T02:54:03.846Z,0
2016-10-05T02:55:03.961Z,0
2016-10-05T02:56:03.082Z,0
2016-10-05T02:57:04.788Z,0
2016-10-05T02:58:03.398Z,0
2016-10-05T02:59:04.348Z,0
2016-10-05T03:00:03.971Z,0
2016-10-05T03:01:03.780Z,0
2016-10-05T03:02:02.880Z,0
2016-10-05T03:03:02.683Z,0
2016-10-05T03:04:02.664Z,0
2016-10-05T03:05:02.902Z,0
2016-10-05T03:06:02.854Z,0
2016-10-05T03:07:04.165Z,0
2016-10-05T03:08:03.322Z,0
2016-10-05T03:09:04.458Z,0
2016-10-05T03:10:03.701Z,0
2016-10-05T03:11:03.287Z,0
2016-10-05T03:12:03.162Z,0
2016-10-05T03:13:03.137Z,0
2016-10-05T03:14:03.768Z,0
2016-10-05T03:15:04.363Z,0
2016-10-05T03:16:03.193Z,0
2016-10-05T03:17:04.393Z,0
2016-10-05T03:18:04.915Z,0
2016-10-05T03:19:03.649Z,0
2016-10-05T03:20:03.987Z,0
2016-10-05T03:21:03.605Z,0
2016-10-05T03:22:04.852Z,0
2016-10-05T03:23:03.595Z,0
2016-10-05T03:24:03.952Z,0
2016-10-05T03:25:03.730Z,0
2016-10-05T03:26:03.113Z,0
2016-10-05T03:27:04.565Z,0
2016-10-05T03:28:03.927Z,0
2016-10-05T03:29:03.991Z,0
2016-10-05T03:30:03.912Z,0
2016-10-05T03:31:03.613Z,0
2016-10-05T03:32:05.496Z,0
2016-10-05T03:33:04.920Z,0
2016-10-05T03:34:03.954Z,0
2016-10-05T03:35:03.809Z,0
2016-10-05T03:36:03.498Z,0
2016-10-05T03:37:03.690Z,0
2016-10-05T03:38:03.456Z,0
2016-10-05T03:39:04.922Z,0
2016-10-05T03:40:03.895Z,0
2016-10-05T03:41:05.066Z,0
2016-10-05T03:42:04.136Z,0
2016-10-05T03:43:03.794Z,0
2016-10-05T03:44:03.905Z,0
2016-10-05T03:45:04.536Z,0
2016-10-05T03:46:04.240Z,0
2016-10-05T03:47:04.500Z,0
2016-10-05T03:48:05.629Z,0
2016-10-05T03:49:05.701Z,0
2016-10-05T03:50:04.014Z,0
2016-10-05T03:51:04.619Z,0
2016-10-05T03:52:04.912Z,0
2016-10-05T03:53:03.212Z,0
2016-10-05T03:54:04.343Z,0
2016-10-05T03:55:03.859Z,0
2016-10-05T03:56:04.351Z,0
2016-10-05T03:57:04.278Z,0
2016-10-05T03:58:04.064Z,0
2016-10-05T03:59:04.691Z,0
2016-10-05T04:00:04.901Z,0
2016-10-05T04:01:04.450Z,0
2016-10-05T04:02:05.094Z,0
2016-10-05T04:03:05.479Z,0
2016-10-05T04:04:03.859Z,0
2016-10-05T04:05:04.780Z,0
2016-10-05T04:06:03.614Z,0
2016-10-05T04:07:03.691Z,0
2016-10-05T04:08:03.991Z,0
2016-10-05T04:09:05.003Z,0
2016-10-05T04:10:04.163Z,0
2016-10-05T04:11:04.970Z,0
2016-10-05T04:12:04.453Z,0
2016-10-05T04:13:05.054Z,0
2016-10-05T04:14:05.342Z,0
2016-10-05T04:15:03.624Z,0
2016-10-05T04:16:04.861Z,0
2016-10-05T04:17:04.197Z,0
2016-10-05T04:18:05.149Z,0
2016-10-05T04:19:03.876Z,0
2016-10-05T04:20:04.673Z,0
2016-10-05T04:21:04.995Z,0
2016-10-05T04:22:05.190Z,0
2016-10-05T04:23:04.316Z,0
2016-10-05T04:24:04.994Z,0
2016-10-05T04:25:05.194Z,0
2016-10-05T04:26:04.826Z,0
2016-10-05T04:27:05.045Z,0
2016-10-05T04:28:04.252Z,0
2016-10-05T04:29:04.400Z,0
2016-10-05T04:30:05.876Z,0
2016-10-05T04:31:05.229Z,0
2016-10-05T04:32:06.073Z,0
2016-10-05T04:33:03.996Z,0
2016-10-05T04:34:05.769Z,0
2016-10-05T04:35:04.120Z,0
2016-10-05T04:36:05.152Z,0
2016-10-05T04:37:05.373Z,0
2016-10-05T04:38:05.777Z,0
2016-10-05T04:39:05.090Z,0
2016-10-05T04:40:05.064Z,0
2016-10-05T04:41:05.977Z,0
2016-10-05T04:42:05.177Z,0
2016-10-05T04:43:04.904Z,0
2016-10-05T04:44:05.979Z,0
2016-10-05T04:45:05.685Z,0
2016-10-05T04:46:05.295Z,0
2016-10-05T04:47:05.631Z,0
2016-10-05T04:48:05.537Z,0
2016-10-05T04:49:05.882Z,0
2016-10-05T04:50:05.773Z,0
2016-10-05T04:51:04.920Z,0
2016-10-05T04:52:06.018Z,0
2016-10-05T04:53:05.695Z,0
2016-10-05T04:54:06.325Z,0
2016-10-05T04:55:05.329Z,0
2016-10-05T04:56:06.199Z,0
2016-10-05T04:57:05.072Z,0
2016-10-05T04:58:05.554Z,4
2016-10-05T04:59:05.213Z,4
2016-10-05T05:00:05.404Z,0
2016-10-05T05:01:05.209Z,4
2016-10-05T05:02:05.101Z,4
2016-10-05T05:03:06.538Z,8
2016-10-05T05:04:05.362Z,8
2016-10-05T05:05:05.190Z,8
2016-10-05T05:06:06.564Z,12
2016-10-05T05:07:05.658Z,12
2016-10-05T05:08:05.829Z,12
2016-10-05T05:09:05.242Z,16
2016-10-05T05:10:05.554Z,20
2016-10-05T05:11:06.652Z,24
2016-10-05T05:12:05.645Z,28
2016-10-05T05:13:05.649Z,32
2016-10-05T05:14:06.086Z,44
2016-10-05T05:15:05.155Z,48
2016-10-05T05:16:05.556Z,56
2016-10-05T05:17:06.457Z,64
2016-10-05T05:18:05.538Z,76
2016-10-05T05:19:06.108Z,88
2016-10-05T05:20:05.640Z,100
2016-10-05T05:21:06.639Z,112
2016-10-05T05:22:05.911Z,128
2016-10-05T05:23:05.184Z,148
2016-10-05T05:24:05.888Z,168
2016-10-05T05:25:06.618Z,188
2016-10-05T05:26:06.767Z,212
2016-10-05T05:27:05.765Z,236
2016-10-05T05:28:06.953Z,260
2016-10-05T05:29:05.965Z,288
2016-10-05T05:30:06.165Z,316
2016-10-05T05:31:05.849Z,344
2016-10-05T05:32:05.978Z,380
2016-10-05T05:33:06.723Z,408
2016-10-05T05:34:06.198Z,448
2016-10-05T05:35:06.205Z,480
2016-10-05T05:36:05.746Z,516
2016-10-05T05:37:05.015Z,552
2016-10-05T05:38:05.005Z,596
2016-10-05T05:39:06.854Z,636
2016-10-05T05:40:06.431Z,676
2016-10-05T05:41:06.917Z,720
2016-10-05T05:42:05.257Z,764
2016-10-05T05:43:05.822Z,804
2016-10-05T05:44:06.017Z,848
2016-10-05T05:45:06.949Z,896
2016-10-05T05:46:05.639Z,936
2016-10-05T05:47:06.728Z,984
2016-10-05T05:48:06.374Z,1028
2016-10-05T05:49:07.411Z,1076
2016-10-05T05:50:05.780Z,1120
2016-10-05T05:51:05.933Z,1164
2016-10-05T05:52:05.789Z,1212
2016-10-05T05:53:05.614Z,1256
2016-10-05T05:54:05.582Z,1300
2016-10-05T05:55:06.297Z,1348
2016-10-05T05:56:05.346Z,1392
2016-10-05T05:57:06.153Z,1432
2016-10-05T05:58:05.743Z,1472
2016-10-05T05:59:07.095Z,1516
2016-10-05T06:00:05.349Z,1556
2016-10-05T06:01:06.571Z,1604
2016-10-05T06:02:05.901Z,1636
2016-10-05T06:03:05.978Z,1680
2016-10-05T06:04:06.864Z,1720
2016-10-05T06:05:05.651Z,1756
2016-10-05T06:06:06.653Z,1792
2016-10-05T06:07:06.155Z,1832
2016-10-05T06:08:07.263Z,1872
2016-10-05T06:09:06.392Z,1908
2016-10-05T06:10:06.897Z,1948
2016-10-05T06:11:05.473Z,1984
2016-10-05T06:12:05.982Z,2016
2016-10-05T06:13:05.725Z,2052
2016-10-05T06:14:06.066Z,2084
2016-10-05T06:15:05.940Z,2112
2016-10-05T06:16:07.083Z,2144
2016-10-05T06:17:06.312Z,2180
2016-10-05T06:18:07.367Z,2212
2016-10-05T06:19:06.968Z,2244
2016-10-05T06:20:06.392Z,2292
2016-10-05T06:21:06.108Z,2324
2016-10-05T06:22:06.982Z,2352
2016-10-05T06:23:07.030Z,2372
2016-10-05T06:24:06.123Z,2404
2016-10-05T06:25:06.804Z,2432
2016-10-05T06:26:07.471Z,2464
2016-10-05T06:27:07.212Z,2496
2016-10-05T06:28:06.063Z,2528
2016-10-05T06:29:06.565Z,2560
2016-10-05T06:30:08.473Z,2588
2016-10-05T06:31:07.330Z,2616
2016-10-05T06:32:06.480Z,2644
2016-10-05T06:33:06.278Z,2668
2016-10-05T06:34:06.228Z,2684
2016-10-05T06:35:08.286Z,2712
2016-10-05T06:36:07.125Z,2736
2016-10-05T06:37:07.635Z,2764
2016-10-05T06:38:07.867Z,2804
2016-10-05T06:39:06.161Z,2832
2016-10-05T06:40:06.888Z,2808
2016-10-05T06:41:06.838Z,2808
2016-10-05T06:42:06.783Z,2748
2016-10-05T06:43:07.474Z,2856
2016-10-05T06:44:07.070Z,3112
2016-10-05T06:45:06.955Z,3536
2016-10-05T06:46:08.059Z,4272
2016-10-05T06:47:07.354Z,5160
2016-10-05T06:48:07.196Z,5836
2016-10-05T06:49:06.818Z,6020
2016-10-05T06:50:08.291Z,6084
2016-10-05T06:51:07.268Z,6276
2016-10-05T06:52:06.973Z,6100
2016-10-05T06:53:08.092Z,5804
2016-10-05T06:54:06.746Z,5936
2016-10-05T06:55:07.271Z,6160
2016-10-05T06:56:08.772Z,6424
2016-10-05T06:57:07.980Z,6724
2016-10-05T06:58:07.942Z,6836
2016-10-05T06:59:06.741Z,6740
2016-10-05T07:00:07.146Z,6552
2016-10-05T07:01:08.106Z,6200
2016-10-05T07:02:09.292Z,6060
2016-10-05T07:03:06.632Z,6220
2016-10-05T07:04:08.424Z,6412
2016-10-05T07:05:07.082Z,6476
2016-10-05T07:06:08.011Z,6376
2016-10-05T07:07:07.533Z,6448
2016-10-05T07:08:06.970Z,6448
2016-10-05T07:09:07.214Z,5936
2016-10-05T07:10:08.492Z,5440
2016-10-05T07:11:07.517Z,5072
2016-10-05T07:12:07.021Z,5828
2016-10-05T07:13:07.601Z,5532
2016-10-05T07:14:06.944Z,4860
2016-10-05T07:15:06.487Z,4904
2016-10-05T07:16:07.748Z,10688
2016-10-05T07:17:07.502Z,6164
2016-10-05T07:18:07.055Z,12600
2016-10-05T07:19:08.487Z,8816
2016-10-05T07:20:07.262Z,7240
2016-10-05T07:21:06.778Z,12680
2016-10-05T07:22:07.401Z,12800
2016-10-05T07:23:07.846Z,12940
2016-10-05T07:24:06.660Z,13052
2016-10-05T07:25:07.512Z,13168
2016-10-05T07:26:07.022Z,13320
2016-10-05T07:27:08.205Z,13468
2016-10-05T07:28:07.974Z,13632
2016-10-05T07:29:07.288Z,13776
2016-10-05T07:30:08.231Z,13936
2016-10-05T07:31:08.484Z,14128
2016-10-05T07:32:07.317Z,14376
2016-10-05T07:33:06.956Z,14528
2016-10-05T07:34:07.477Z,14592
2016-10-05T07:35:07.779Z,14688
2016-10-05T07:36:07.515Z,14556
2016-10-05T07:37:07.307Z,13144
2016-10-05T07:38:08.323Z,11980
2016-10-05T07:39:07.863Z,9908
2016-10-05T07:40:09.527Z,8500
2016-10-05T07:41:07.224Z,9892
2016-10-05T07:42:09.030Z,13960
2016-10-05T07:43:06.942Z,16960
2016-10-05T07:44:07.711Z,17088
2016-10-05T07:45:08.154Z,11736
2016-10-05T07:46:08.084Z,11392
2016-10-05T07:47:07.784Z,11752
2016-10-05T07:48:08.125Z,12520
2016-10-05T07:49:08.145Z,12652
2016-10-05T07:50:08.185Z,11848
2016-10-05T07:51:09.287Z,14028
2016-10-05T07:52:07.234Z,14672
2016-10-05T07:53:08.492Z,13116
2016-10-05T07:54:07.591Z,14228
2016-10-05T07:55:08.450Z,14332
2016-10-05T07:56:08.080Z,14460
2016-10-05T07:57:08.795Z,13272
2016-10-05T07:58:07.438Z,13280
2016-10-05T07:59:08.808Z,11860
2016-10-05T08:00:08.060Z,12176
2016-10-05T08:01:07.697Z,13484
2016-10-05T08:02:09.127Z,14624
2016-10-05T08:03:07.875Z,14924
2016-10-05T08:04:09.568Z,16544
2016-10-05T08:05:08.701Z,15104
2016-10-05T08:06:09.329Z,16768
2016-10-05T08:07:07.894Z,18016
2016-10-05T08:08:08.379Z,16608
2016-10-05T08:09:07.832Z,15112
2016-10-05T08:10:09.261Z,14480
2016-10-05T08:11:07.767Z,14808
2016-10-05T08:12:07.969Z,15288
2016-10-05T08:13:08.141Z,19456
2016-10-05T08:14:08.121Z,17344
2016-10-05T08:15:07.795Z,19200
2016-10-05T08:16:09.121Z,21696
2016-10-05T08:17:08.179Z,19904
2016-10-05T08:18:09.116Z,25312
2016-10-05T08:19:08.237Z,20352
2016-10-05T08:20:08.825Z,22688
2016-10-05T08:21:09.336Z,23904
2016-10-05T08:22:08.534Z,23072
2016-10-05T08:23:08.201Z,19232
2016-10-05T08:24:09.700Z,18272
2016-10-05T08:25:08.677Z,20832
2016-10-05T08:26:09.157Z,20224
2016-10-05T08:27:08.689Z,15292
2016-10-05T08:28:09.687Z,15484
2016-10-05T08:29:09.205Z,14348
2016-10-05T08:30:09.197Z,15232
2016-10-05T08:31:08.251Z,15380
2016-10-05T08:32:08.634Z,16052
2016-10-05T08:33:08.045Z,16736
2016-10-05T08:34:08.687Z,21664
2016-10-05T08:35:08.173Z,21728
2016-10-05T08:36:09.394Z,22176
2016-10-05T08:37:09.993Z,18112
2016-10-05T08:38:09.718Z,16128
2016-10-05T08:39:08.246Z,15868
2016-10-05T08:40:08.805Z,17568
2016-10-05T08:41:08.984Z,9588
2016-10-05T08:42:09.880Z,11696
2016-10-05T08:43:09.725Z,10616
2016-10-05T08:44:10.456Z,10528
2016-10-05T08:45:09.987Z,10940
2016-10-05T08:46:09.456Z,11860
2016-10-05T08:47:08.291Z,13088
2016-10-05T08:48:10.109Z,14008
2016-10-05T08:49:08.717Z,14684
2016-10-05T08:50:09.651Z,13560
2016-10-05T08:51:10.080Z,14476
2016-10-05T08:52:08.998Z,13692
2016-10-05T08:53:09.309Z,12840
2016-10-05T08:54:09.740Z,12276
2016-10-05T08:55:08.837Z,12516
2016-10-05T08:56:09.860Z,12420
2016-10-05T08:57:08.691Z,11676
2016-10-05T08:58:09.402Z,13488
2016-10-05T08:59:09.302Z,13684
2016-10-05T09:00:10.899Z,13788
2016-10-05T09:01:08.589Z,13844
2016-10-05T09:02:09.516Z,13344
2016-10-05T09:03:10.464Z,12924
2016-10-05T09:04:08.389Z,12456
2016-10-05T09:05:09.693Z,11484
2016-10-05T09:07:09.348Z,11352
2016-10-05T09:08:10.288Z,11028
2016-10-05T09:09:08.755Z,10872
2016-10-05T09:10:09.278Z,10728
2016-10-05T09:11:08.745Z,10320
2016-10-05T09:12:09.442Z,9992
2016-10-05T09:13:09.748Z,9780
2016-10-05T09:14:09.250Z,9680
2016-10-05T09:15:10.397Z,10104
2016-10-05T09:16:09.337Z,10772
2016-10-05T09:17:10.148Z,10856
2016-10-05T09:18:09.151Z,10700
2016-10-05T09:19:09.408Z,10952
2016-10-05T09:20:08.695Z,11780
2016-10-05T09:21:09.107Z,12984
2016-10-05T09:22:09.670Z,13924
2016-10-05T09:23:09.040Z,14864
2016-10-05T09:24:09.798Z,16188
2016-10-05T09:25:09.515Z,17920
2016-10-05T09:26:09.402Z,18560
2016-10-05T09:27:10.554Z,19072
2016-10-05T09:28:09.549Z,18784
2016-10-05T09:29:09.427Z,18176
2016-10-05T09:30:10.213Z,18016
2016-10-05T09:31:09.087Z,18016
2016-10-05T09:32:09.087Z,14940
2016-10-05T09:33:10.640Z,16148
2016-10-05T09:34:10.222Z,19520
2016-10-05T09:35:10.581Z,19552
2016-10-05T09:36:09.986Z,22912
2016-10-05T09:37:10.139Z,22400
2016-10-05T09:38:12.739Z,21312
2016-10-05T09:39:10.873Z,19232
2016-10-05T09:40:13.250Z,16896
2016-10-05T09:41:11.107Z,16512
2016-10-05T09:42:09.937Z,14736
2016-10-05T09:43:10.502Z,12388
2016-10-05T09:44:09.950Z,11540
2016-10-05T09:45:11.209Z,11684
2016-10-05T09:46:10.668Z,13224
2016-10-05T09:47:10.463Z,14976
2016-10-05T09:48:10.080Z,14416
2016-10-05T09:49:10.106Z,12572
2016-10-05T09:50:09.636Z,10940
2016-10-05T09:51:10.025Z,10284
2016-10-05T09:52:09.972Z,11268
2016-10-05T09:53:10.405Z,11896
2016-10-05T09:54:10.771Z,11748
2016-10-05T09:55:10.982Z,11156
2016-10-05T09:56:10.543Z,10784
2016-10-05T09:57:11.158Z,10232
2016-10-05T09:58:10.330Z,10216
2016-10-05T09:59:11.432Z,10536
2016-10-05T10:00:10.749Z,11640
2016-10-05T10:01:10.110Z,13532
2016-10-05T10:02:11.107Z,15052
2016-10-05T10:03:10.708Z,14352
2016-10-05T10:04:10.310Z,14268
2016-10-05T10:05:11.293Z,10008
2016-10-05T10:06:11.403Z,10348
2016-10-05T10:07:10.183Z,14356
2016-10-05T10:08:10.667Z,10976
2016-10-05T10:09:10.679Z,12416
2016-10-05T10:10:10.794Z,13640
2016-10-05T10:11:11.678Z,11944
2016-10-05T10:12:11.258Z,11708
2016-10-05T10:13:11.145Z,15356
2016-10-05T10:14:10.704Z,15760
2016-10-05T10:15:11.168Z,17088
2016-10-05T10:16:10.573Z,18208
2016-10-05T10:17:12.401Z,18336
2016-10-05T10:18:10.986Z,17312
2016-10-05T10:19:10.912Z,16180
2016-10-05T10:20:10.667Z,16252
2016-10-05T10:21:11.466Z,17728
2016-10-05T10:22:11.704Z,19776
2016-10-05T10:23:11.729Z,20128
2016-10-05T10:24:11.232Z,18368
2016-10-05T10:25:11.663Z,16928
2016-10-05T10:26:12.517Z,16156
2016-10-05T10:27:11.760Z,16640
2016-10-05T10:28:10.273Z,17152
2016-10-05T10:29:11.651Z,18976
2016-10-05T10:30:11.362Z,16140
2016-10-05T10:31:10.799Z,17184
2016-10-05T10:32:10.521Z,20352
2016-10-05T10:33:10.846Z,19648
2016-10-05T10:35:11.485Z,16036
2016-10-05T10:36:12.485Z,19008
2016-10-05T10:37:11.636Z,18048
2016-10-05T10:38:11.257Z,17408
2016-10-05T10:39:13.063Z,18080
2016-10-05T10:40:10.864Z,18656
2016-10-05T10:41:11.540Z,18592
2016-10-05T10:42:11.302Z,18752
2016-10-05T10:43:10.875Z,13540
2016-10-05T10:44:11.565Z,9576
2016-10-05T10:45:12.188Z,7476
2016-10-05T10:46:12.895Z,10996
2016-10-05T10:47:12.165Z,10608
2016-10-05T10:48:12.164Z,10156
2016-10-05T10:49:12.139Z,5980
2016-10-05T10:50:12.755Z,6048
2016-10-05T10:51:11.770Z,10048
2016-10-05T10:52:12.240Z,10184
2016-10-05T10:53:11.551Z,8824
2016-10-05T10:54:12.664Z,11176
2016-10-05T10:55:11.524Z,10908
2016-10-05T10:56:12.153Z,8048
2016-10-05T10:57:12.413Z,8908
2016-10-05T10:58:12.140Z,11072
2016-10-05T10:59:12.154Z,13940
2016-10-05T11:00:12.581Z,14840
2016-10-05T11:01:11.630Z,16928
2016-10-05T11:02:11.694Z,14592
2016-10-05T11:03:11.402Z,15056
2016-10-05T11:04:12.815Z,15264
2016-10-05T11:05:11.065Z,16064
2016-10-05T11:06:12.290Z,17280
2016-10-05T11:07:12.392Z,17024
2016-10-05T11:08:12.955Z,15220
2016-10-05T11:09:12.457Z,13408
2016-10-05T11:10:13.391Z,12372
2016-10-05T11:11:12.143Z,11524
2016-10-05T11:12:11.685Z,11292
2016-10-05T11:13:11.958Z,11356
2016-10-05T11:14:12.586Z,11552
2016-10-05T11:15:12.149Z,12156
2016-10-05T11:16:12.185Z,13244
2016-10-05T11:17:11.562Z,14188
2016-10-05T11:18:12.104Z,14800
2016-10-05T11:19:12.922Z,15708
2016-10-05T11:20:12.110Z,17376
2016-10-05T11:21:13.298Z,18464
2016-10-05T11:22:13.665Z,17984
2016-10-05T11:23:12.287Z,15888
2016-10-05T11:24:12.653Z,14412
2016-10-05T11:25:12.036Z,14024
2016-10-05T11:26:11.975Z,14548
2016-10-05T11:27:12.395Z,16000
2016-10-05T11:28:12.621Z,16480
2016-10-05T11:29:13.753Z,16052
2016-10-05T11:30:12.136Z,15136
2016-10-05T11:31:12.505Z,14276
2016-10-05T11:32:14.942Z,13516
2016-10-05T11:33:12.512Z,13040
2016-10-05T11:34:13.104Z,13100
2016-10-05T11:35:12.317Z,13716
2016-10-05T11:36:11.761Z,17792
2016-10-05T11:37:13.308Z,19104
2016-10-05T11:38:13.067Z,21088
2016-10-05T11:39:11.763Z,19776
2016-10-05T11:40:11.520Z,21728
2016-10-05T11:41:13.850Z,22560
2016-10-05T11:42:15.007Z,22208
2016-10-05T11:43:10.961Z,21792
2016-10-05T11:44:11.635Z,23328
2016-10-05T11:45:13.648Z,19488
2016-10-05T11:46:12.749Z,17312
2016-10-05T11:47:13.034Z,15952
2016-10-05T11:48:12.236Z,15104
2016-10-05T11:49:13.238Z,13812
2016-10-05T11:50:11.876Z,12288
2016-10-05T11:51:13.889Z,11352
2016-10-05T11:52:14.972Z,11148
2016-10-05T11:53:13.558Z,11304
2016-10-05T11:54:13.099Z,12128
2016-10-05T11:55:13.024Z,13280
2016-10-05T11:56:13.858Z,14124
2016-10-05T11:57:12.831Z,13956
2016-10-05T11:58:13.268Z,13572
2016-10-05T11:59:13.418Z,13352
2016-10-05T12:00:12.728Z,12852
2016-10-05T12:01:13.832Z,11836
2016-10-05T12:02:12.995Z,10156
2016-10-05T12:03:13.231Z,8676
2016-10-05T12:04:14.437Z,8148
2016-10-05T12:05:13.653Z,7988
2016-10-05T12:06:13.841Z,12556
2016-10-05T12:07:12.765Z,12668
2016-10-05T12:08:13.956Z,11908
2016-10-05T12:09:14.239Z,11224
2016-10-05T12:10:14.129Z,10932
2016-10-05T12:11:14.913Z,11668
2016-10-05T12:12:13.234Z,13020
2016-10-05T12:13:13.982Z,15088
2016-10-05T12:14:13.212Z,16992
2016-10-05T12:15:14.137Z,18208
2016-10-05T12:16:14.924Z,20416
2016-10-05T12:17:13.786Z,21664
2016-10-05T12:18:13.903Z,21440
2016-10-05T12:19:13.217Z,17856
2016-10-05T12:20:14.289Z,16096
2016-10-05T12:21:13.211Z,14400
2016-10-05T12:22:14.606Z,13916
2016-10-05T12:23:14.595Z,13272
2016-10-05T12:24:13.544Z,13812
2016-10-05T12:25:13.753Z,15432
2016-10-05T12:26:14.528Z,16736
2016-10-05T12:27:15.273Z,16384
2016-10-05T12:28:13.734Z,15844
2016-10-05T12:29:14.559Z,14688
2016-10-05T12:30:14.837Z,13536
2016-10-05T12:31:14.383Z,12596
2016-10-05T12:32:14.523Z,12288
2016-10-05T12:33:14.181Z,12204
2016-10-05T12:34:13.249Z,11960
2016-10-05T12:35:13.842Z,12224
2016-10-05T12:36:13.682Z,12556
2016-10-05T12:37:13.770Z,13372
2016-10-05T12:38:14.605Z,14456
2016-10-05T12:39:14.429Z,15044
2016-10-05T12:40:14.402Z,14980
2016-10-05T12:41:14.850Z,14456
2016-10-05T12:42:14.570Z,13792
2016-10-05T12:43:15.240Z,12512
2016-10-05T12:44:15.222Z,11052
2016-10-05T12:45:15.345Z,10048
2016-10-05T12:46:15.387Z,9876
2016-10-05T12:47:15.039Z,9524
2016-10-05T12:48:15.021Z,8848
2016-10-05T12:49:14.540Z,8288
2016-10-05T12:50:14.217Z,7888
2016-10-05T12:51:14.337Z,7576
2016-10-05T12:52:15.319Z,7720
2016-10-05T12:53:14.221Z,8464
2016-10-05T12:54:13.848Z,9352
2016-10-05T12:55:13.864Z,10044
2016-10-05T12:56:14.258Z,10212
2016-10-05T12:57:16.405Z,10216
2016-10-05T12:58:14.380Z,10084
2016-10-05T12:59:14.381Z,9620
2016-10-05T13:00:14.823Z,8744
2016-10-05T13:01:14.977Z,7856
2016-10-05T13:02:14.136Z,7380
2016-10-05T13:03:14.646Z,7540
2016-10-05T13:04:14.927Z,8420
2016-10-05T13:05:15.462Z,9620
2016-10-05T13:06:14.384Z,10248
2016-10-05T13:07:14.905Z,10512
2016-10-05T13:08:14.549Z,10772
2016-10-05T13:09:15.090Z,11528
2016-10-05T13:10:15.316Z,12684
2016-10-05T13:11:15.092Z,13644
2016-10-05T13:12:15.299Z,14728
2016-10-05T13:13:14.860Z,15980
2016-10-05T13:14:14.720Z,17056
2016-10-05T13:15:14.762Z,17376
2016-10-05T13:16:15.309Z,16048
2016-10-05T13:17:14.478Z,15316
2016-10-05T13:18:15.784Z,15080
2016-10-05T13:19:15.052Z,14784
2016-10-05T13:20:14.918Z,14396
2016-10-05T13:21:15.008Z,13804
2016-10-05T13:22:14.672Z,13092
2016-10-05T13:23:14.683Z,12656
2016-10-05T13:24:14.186Z,13100
2016-10-05T13:25:15.124Z,13800
2016-10-05T13:26:14.725Z,13848
2016-10-05T13:27:15.395Z,13812
2016-10-05T13:28:15.303Z,13924
2016-10-05T13:29:15.926Z,13780
2016-10-05T13:30:15.554Z,13752
2016-10-05T13:31:16.096Z,14188
2016-10-05T13:32:14.455Z,14560
2016-10-05T13:33:16.052Z,14352
2016-10-05T13:34:15.419Z,14004
2016-10-05T13:35:15.531Z,13736
2016-10-05T13:36:16.970Z,14104
2016-10-05T13:37:16.598Z,14940
2016-10-05T13:38:15.065Z,15084
2016-10-05T13:39:15.783Z,14824
2016-10-05T13:40:16.189Z,14680
2016-10-05T13:41:15.573Z,14788